createdAt,value
2022-12-11T00:00:47.434Z,95768.81
2022-12-11T00:03:16.515Z,95768.88
2022-12-11T00:05:43.981Z,95773.97
2022-12-11T00:08:10.770Z,95766.13
2022-12-11T00:10:37.939Z,95772.31
2022-12-11T00:13:05.258Z,95763.91
2022-12-11T00:15:31.586Z,95763.78
2022-12-11T00:17:57.984Z,95773.72
2022-12-11T00:20:24.716Z,95776.69
2022-12-11T00:22:51.187Z,95778.88
2022-12-11T00:25:17.741Z,95779.78
2022-12-11T00:27:45.923Z,95779.28
2022-12-11T00:30:12.927Z,95778.69
2022-12-11T00:32:39.329Z,95785.16
2022-12-11T00:35:06.073Z,95792.69
2022-12-11T00:37:32.579Z,95787.94
2022-12-11T00:39:58.998Z,95786.22
2022-12-11T00:42:25.435Z,95782.72
2022-12-11T00:44:52.100Z,95785.72
2022-12-11T00:47:18.458Z,95781.97
2022-12-11T00:49:49.555Z,95786.34
2022-12-11T00:52:17.656Z,95777.84
2022-12-11T00:54:44.138Z,95780.28
2022-12-11T00:57:10.557Z,95785.25
2022-12-11T00:59:37.035Z,95782.78
2022-12-11T01:02:03.544Z,95780.50
2022-12-11T01:04:30.072Z,95778.94
2022-12-11T01:06:56.453Z,95771.56
2022-12-11T01:09:41.609Z,95771.19
2022-12-11T01:12:08.029Z,95770.25
2022-12-11T01:14:34.498Z,95776.16
2022-12-11T01:17:00.926Z,95771.06
2022-12-11T01:19:27.323Z,95775.28
2022-12-11T01:21:53.956Z,95784.16
2022-12-11T01:24:20.505Z,95785.63
2022-12-11T01:26:46.879Z,95780.66
2022-12-11T01:29:13.275Z,95788.00
2022-12-11T01:31:39.665Z,95792.69
2022-12-11T01:34:06.170Z,95793.16
2022-12-11T01:36:32.760Z,95786.69
2022-12-11T01:38:59.193Z,95800.84
2022-12-11T01:41:25.674Z,95803.66
2022-12-11T01:44:08.426Z,95800.66
2022-12-11T01:46:36.285Z,95806.31
2022-12-11T01:49:07.521Z,95806.31
2022-12-11T01:51:40.872Z,95804.53
2022-12-11T01:54:11.345Z,95810.75
2022-12-11T01:56:39.746Z,95812.69
2022-12-11T01:59:09.370Z,95813.34
2022-12-11T02:01:54.983Z,95834.00
2022-12-11T02:04:21.436Z,95816.72
2022-12-11T02:06:50.529Z,95817.13
2022-12-11T02:09:35.008Z,95829.19
2022-12-11T02:12:04.253Z,95831.50
2022-12-11T02:14:49.370Z,95823.59
2022-12-11T02:17:25.080Z,95833.72
2022-12-11T02:20:07.090Z,95829.69
2022-12-11T02:22:51.653Z,95835.03
2022-12-11T02:25:46.730Z,95840.03
2022-12-11T02:28:37.053Z,95844.19
2022-12-11T02:31:27.549Z,95832.78
2022-12-11T02:34:12.016Z,95831.13
2022-12-11T02:36:43.430Z,95824.03
2022-12-11T02:39:12.969Z,95821.47
2022-12-11T02:41:44.395Z,95825.97
2022-12-11T02:44:13.001Z,95827.63
2022-12-11T02:46:40.209Z,95824.50
2022-12-11T02:49:08.746Z,95825.13
2022-12-11T02:51:39.565Z,95822.63
2022-12-11T02:54:10.205Z,95815.59
2022-12-11T02:56:41.789Z,95817.03
2022-12-11T02:59:15.477Z,95823.22
2022-12-11T03:01:43.012Z,95820.63
2022-12-11T03:04:09.771Z,95818.69
2022-12-11T03:06:41.464Z,95815.00
2022-12-11T03:09:08.545Z,95819.53
2022-12-11T03:11:34.877Z,95821.19
2022-12-11T03:14:02.797Z,95824.41
2022-12-11T03:16:33.777Z,95825.25
2022-12-11T03:19:21.654Z,95828.75
2022-12-11T03:22:00.409Z,95834.56
2022-12-11T03:24:34.402Z,95825.91
2022-12-11T03:27:25.981Z,95832.72
2022-12-11T03:29:57.911Z,95826.03
2022-12-11T03:32:29.730Z,95833.09
2022-12-11T03:35:12.266Z,95830.34
2022-12-11T03:37:42.186Z,95825.00
2022-12-11T03:40:14.366Z,95823.72
2022-12-11T03:42:44.917Z,95821.50
2022-12-11T03:45:13.674Z,95819.13
2022-12-11T03:47:42.348Z,95837.59
2022-12-11T03:50:11.044Z,95838.06
2022-12-11T03:52:45.720Z,95839.56
2022-12-11T03:55:15.831Z,95850.50
2022-12-11T03:57:42.481Z,95854.75
2022-12-11T04:00:12.473Z,95854.28
2022-12-11T04:02:39.466Z,95856.00
2022-12-11T04:05:06.422Z,95856.00
2022-12-11T04:07:32.833Z,95848.66
2022-12-11T04:10:00.238Z,95854.28
2022-12-11T04:12:26.618Z,95849.84
2022-12-11T04:15:02.123Z,95851.31
2022-12-11T04:17:53.438Z,95843.69
2022-12-11T04:20:39.881Z,95844.50
2022-12-11T04:23:29.851Z,95842.31
2022-12-11T04:26:07.682Z,95852.06
2022-12-11T04:28:34.341Z,95844.69
2022-12-11T04:31:00.988Z,95840.19
2022-12-11T04:33:27.815Z,95831.44
2022-12-11T04:35:54.339Z,95830.59
2022-12-11T04:38:20.669Z,95831.25
2022-12-11T04:40:47.037Z,95829.59
2022-12-11T04:43:13.375Z,95818.75
2022-12-11T04:45:39.733Z,95839.09
2022-12-11T04:48:06.265Z,95843.94
2022-12-11T04:50:32.589Z,95831.97
2022-12-11T04:52:58.961Z,95839.88
2022-12-11T04:55:25.366Z,95829.41
2022-12-11T04:57:51.682Z,95835.19
2022-12-11T05:00:18.079Z,95838.78
2022-12-11T05:02:44.526Z,95846.31
2022-12-11T05:05:11.866Z,95840.16
2022-12-11T05:07:39.771Z,95842.81
2022-12-11T05:10:06.790Z,95837.22
2022-12-11T05:12:33.368Z,95830.47
2022-12-11T05:14:59.718Z,95832.06
2022-12-11T05:17:26.101Z,95829.19
2022-12-11T05:19:52.418Z,95825.59
2022-12-11T05:22:19.194Z,95821.06
2022-12-11T05:24:45.995Z,95820.78
2022-12-11T05:27:12.501Z,95821.31
2022-12-11T05:29:38.847Z,95822.34
2022-12-11T05:32:05.490Z,95827.31
2022-12-11T05:34:32.797Z,95826.22
2022-12-11T05:36:59.107Z,95826.59
2022-12-11T05:39:25.461Z,95826.75
2022-12-11T05:41:51.792Z,95826.22
2022-12-11T05:44:18.135Z,95834.97
2022-12-11T05:46:44.494Z,95830.63
2022-12-11T05:49:11.152Z,95832.81
2022-12-11T05:51:39.485Z,95831.34
2022-12-11T05:54:05.827Z,95828.69
2022-12-11T05:56:34.600Z,95826.50
2022-12-11T05:59:03.056Z,95825.84
2022-12-11T06:01:40.143Z,95824.06
2022-12-11T06:04:08.461Z,95830.91
2022-12-11T06:06:35.974Z,95824.00
2022-12-11T06:09:03.871Z,95823.19
2022-12-11T06:11:32.045Z,95829.66
2022-12-11T06:13:58.873Z,95825.75
2022-12-11T06:16:25.589Z,95826.34
2022-12-11T06:18:54.657Z,95828.25
2022-12-11T06:21:29.882Z,95826.09
2022-12-11T06:23:58.820Z,95832.91
2022-12-11T06:26:26.078Z,95829.47
2022-12-11T06:28:52.887Z,95835.97
2022-12-11T06:31:19.682Z,95833.41
2022-12-11T06:33:47.297Z,95833.41
2022-12-11T06:36:16.316Z,95829.19
2022-12-11T06:38:43.407Z,95829.75
2022-12-11T06:41:10.244Z,95823.84
2022-12-11T06:43:38.660Z,95830.25
2022-12-11T06:46:06.918Z,95830.25
2022-12-11T06:48:36.089Z,95835.75
2022-12-11T06:51:06.901Z,95844.88
2022-12-11T06:53:33.704Z,95841.63
2022-12-11T06:56:05.291Z,95838.72
2022-12-11T06:58:33.501Z,95845.41
2022-12-11T07:00:59.978Z,95842.72
2022-12-11T07:03:26.349Z,95849.53
2022-12-11T07:05:52.666Z,95847.13
2022-12-11T07:08:19.131Z,95851.19
2022-12-11T07:10:45.502Z,95855.56
2022-12-11T07:13:11.830Z,95852.50
2022-12-11T07:15:40.520Z,95857.84
2022-12-11T07:18:07.030Z,95851.03
2022-12-11T07:20:33.343Z,95851.94
2022-12-11T07:23:00.307Z,95846.81
2022-12-11T07:25:26.687Z,95848.03
2022-12-11T07:27:53.190Z,95841.38
2022-12-11T07:30:19.561Z,95844.06
2022-12-11T07:32:45.966Z,95849.75
2022-12-11T07:35:12.610Z,95850.69
2022-12-11T07:37:41.389Z,95845.47
2022-12-11T07:40:08.481Z,95843.06
2022-12-11T07:42:34.804Z,95841.56
2022-12-11T07:45:01.116Z,95852.75
2022-12-11T07:47:27.422Z,95844.06
2022-12-11T07:49:56.805Z,95846.88
2022-12-11T07:52:23.114Z,95838.13
2022-12-11T07:54:49.818Z,95844.69
2022-12-11T07:57:16.353Z,95843.75
2022-12-11T07:59:42.715Z,95843.75
2022-12-11T08:02:11.758Z,95845.84
2022-12-11T08:04:38.633Z,95848.72
2022-12-11T08:07:04.997Z,95848.91
2022-12-11T08:09:31.448Z,95853.25
2022-12-11T08:11:57.820Z,95852.34
2022-12-11T08:14:24.147Z,95853.91
2022-12-11T08:16:50.553Z,95850.38
2022-12-11T08:19:17.852Z,95842.91
2022-12-11T08:21:44.224Z,95842.66
2022-12-11T08:26:37.653Z,95849.78
2022-12-11T08:29:04.260Z,95853.69
2022-12-11T08:31:30.744Z,95854.59
2022-12-11T08:33:57.534Z,95850.00
2022-12-11T08:36:25.162Z,95854.84
2022-12-11T08:38:53.606Z,95860.53
2022-12-11T08:41:26.593Z,95855.41
2022-12-11T08:43:54.860Z,95863.13
2022-12-11T08:46:23.859Z,95858.31
2022-12-11T08:48:50.559Z,95853.44
2022-12-11T08:51:20.653Z,95853.19
2022-12-11T08:53:46.989Z,95853.69
2022-12-11T08:56:16.401Z,95855.50
2022-12-11T08:58:44.070Z,95856.00
2022-12-11T09:01:12.468Z,95853.66
2022-12-11T09:03:39.907Z,95837.00
2022-12-11T09:06:11.973Z,95842.72
2022-12-11T09:08:38.771Z,95837.75
2022-12-11T09:11:11.183Z,95833.34
2022-12-11T09:13:39.276Z,95836.09
2022-12-11T09:16:09.797Z,95842.38
2022-12-11T09:18:37.358Z,95832.94
2022-12-11T09:21:06.846Z,95842.03
2022-12-11T09:23:33.380Z,95838.22
2022-12-11T09:26:00.316Z,95836.38
2022-12-11T09:28:26.643Z,95833.63
2022-12-11T09:30:53.024Z,95830.25
2022-12-11T09:33:19.531Z,95832.03
2022-12-11T09:35:46.161Z,95828.97
2022-12-11T09:38:12.484Z,95825.75
2022-12-11T09:40:43.190Z,95829.63
2022-12-11T09:46:09.618Z,95814.50
2022-12-11T09:48:38.187Z,95811.47
2022-12-11T09:51:20.275Z,95813.34
2022-12-11T09:53:50.116Z,95809.16
2022-12-11T09:56:18.163Z,95796.75
2022-12-11T09:58:53.566Z,95798.38
2022-12-11T10:01:34.559Z,95803.16
2022-12-11T10:04:16.113Z,95796.38
2022-12-11T10:07:15.893Z,95795.25
2022-12-11T10:09:56.566Z,95787.00
2022-12-11T10:12:47.672Z,95792.25
2022-12-11T10:15:46.022Z,95775.03
2022-12-11T10:18:21.239Z,95774.41
2022-12-11T10:20:49.830Z,95770.34
2022-12-11T10:23:22.542Z,95767.94
2022-12-11T10:26:14.205Z,95768.81
2022-12-11T10:28:40.582Z,95762.19
2022-12-11T10:31:19.139Z,95765.13
2022-12-11T10:33:59.236Z,95752.97
2022-12-11T10:36:40.960Z,95753.31
2022-12-11T10:39:19.356Z,95758.00
2022-12-11T10:41:54.114Z,95744.81
2022-12-11T10:44:31.075Z,95746.63
2022-12-11T10:47:15.413Z,95739.69
2022-12-11T10:49:58.178Z,95743.13
2022-12-11T10:52:31.512Z,95736.63
2022-12-11T10:55:17.281Z,95733.22
2022-12-11T10:57:43.962Z,95731.66
2022-12-11T11:00:30.614Z,95727.78
2022-12-11T11:02:58.151Z,95721.69
2022-12-11T11:05:34.685Z,95718.50
2022-12-11T11:08:24.884Z,95719.03
2022-12-11T11:10:57.393Z,95722.06
2022-12-11T11:13:25.877Z,95714.50
2022-12-11T11:16:05.545Z,95709.78
2022-12-11T11:18:33.517Z,95717.69
2022-12-11T11:21:01.558Z,95717.91
2022-12-11T11:23:28.599Z,95713.13
2022-12-11T11:26:02.473Z,95703.25
2022-12-11T11:28:57.602Z,95696.38
2022-12-11T11:31:34.115Z,95699.16
2022-12-11T11:34:07.775Z,95700.50
2022-12-11T11:36:36.228Z,95689.66
2022-12-11T11:39:02.508Z,95684.28
2022-12-11T11:41:31.531Z,95687.00
2022-12-11T11:44:00.539Z,95678.72
2022-12-11T11:46:33.324Z,95683.97
2022-12-11T11:49:18.422Z,95669.41
2022-12-11T11:51:51.315Z,95672.59
2022-12-11T11:54:30.302Z,95669.13
2022-12-11T11:56:57.675Z,95677.19
2022-12-11T11:59:36.259Z,95669.59
2022-12-11T12:02:02.918Z,95664.53
2022-12-11T12:04:34.980Z,95664.53
2022-12-11T12:07:23.919Z,95655.59
2022-12-11T12:10:12.275Z,95656.88
2022-12-11T12:13:14.344Z,95649.00
2022-12-11T12:15:54.251Z,95647.47
2022-12-11T12:18:58.086Z,95640.63
2022-12-11T12:21:35.269Z,95658.41
2022-12-11T12:24:20.476Z,95642.72
2022-12-11T12:26:55.758Z,95643.28
2022-12-11T12:29:40.684Z,95641.00
2022-12-11T12:32:31.556Z,95647.44
2022-12-11T12:35:16.711Z,95653.44
2022-12-11T12:38:20.859Z,95644.44
2022-12-11T12:41:04.649Z,95645.31
2022-12-11T12:43:53.402Z,95639.44
2022-12-11T12:46:36.768Z,95646.19
2022-12-11T12:49:04.820Z,95636.63
2022-12-11T12:51:31.881Z,95631.72
2022-12-11T12:54:06.558Z,95636.19
2022-12-11T12:56:38.294Z,95633.38
2022-12-11T12:59:04.654Z,95628.94
2022-12-11T13:01:31.808Z,95626.19
2022-12-11T13:04:07.331Z,95627.63
2022-12-11T13:06:41.033Z,95626.94
2022-12-11T13:09:18.775Z,95629.19
2022-12-11T13:11:47.404Z,95629.75
2022-12-11T13:14:13.675Z,95626.56
2022-12-11T13:16:42.065Z,95624.41
2022-12-11T13:19:23.720Z,95624.78
2022-12-11T13:22:17.445Z,95624.06
2022-12-11T13:24:47.794Z,95632.22
2022-12-11T13:27:26.318Z,95631.97
2022-12-11T13:30:08.468Z,95630.31
2022-12-11T13:32:35.018Z,95632.44
2022-12-11T13:35:06.829Z,95632.69
2022-12-11T13:37:41.073Z,95640.81
2022-12-11T13:40:17.258Z,95640.34
2022-12-11T13:42:57.167Z,95644.72
2022-12-11T13:45:28.960Z,95645.28
2022-12-11T13:47:59.353Z,95647.53
2022-12-11T13:50:30.913Z,95650.16
2022-12-11T13:52:59.284Z,95659.34
2022-12-11T13:55:29.978Z,95651.06
2022-12-11T13:57:57.230Z,95648.47
2022-12-11T14:00:26.797Z,95656.69
2022-12-11T14:02:55.965Z,95652.97
2022-12-11T14:05:22.772Z,95654.38
2022-12-11T14:07:52.047Z,95658.41
2022-12-11T14:10:22.857Z,95664.28
2022-12-11T14:13:27.090Z,95664.63
2022-12-11T14:15:54.370Z,95670.63
2022-12-11T14:18:27.539Z,95670.28
2022-12-11T14:21:05.188Z,95672.53
2022-12-11T14:23:37.220Z,95678.44
2022-12-11T14:26:15.484Z,95667.59
2022-12-11T14:28:43.313Z,95674.91
2022-12-11T14:31:15.724Z,95672.50
2022-12-11T14:33:46.158Z,95670.75
2022-12-11T14:36:15.381Z,95674.19
2022-12-11T14:38:49.282Z,95677.59
2022-12-11T14:41:21.861Z,95683.38
2022-12-11T14:43:53.262Z,95685.50
2022-12-11T14:46:38.429Z,95698.69
2022-12-11T14:49:16.998Z,95693.25
2022-12-11T14:51:44.480Z,95696.94
2022-12-11T14:54:27.534Z,95701.25
2022-12-11T14:56:54.508Z,95693.66
2022-12-11T14:59:31.637Z,95693.13
2022-12-11T15:02:00.887Z,95693.31
2022-12-11T15:04:32.343Z,95698.66
2022-12-11T15:06:59.697Z,95691.06
2022-12-11T15:09:29.583Z,95694.38
2022-12-11T15:12:07.497Z,95698.75
2022-12-11T15:14:34.327Z,95698.59
2022-12-11T15:17:00.742Z,95694.81
2022-12-11T15:19:31.414Z,95693.78
2022-12-11T15:22:05.662Z,95692.34
2022-12-11T15:24:41.735Z,95692.88
2022-12-11T15:27:26.405Z,95695.47
2022-12-11T15:29:54.002Z,95679.41
2022-12-11T15:32:21.676Z,95691.41
2022-12-11T15:34:59.598Z,95686.97
2022-12-11T15:37:32.602Z,95694.75
2022-12-11T15:40:01.282Z,95693.75
2022-12-11T15:42:39.971Z,95693.13
2022-12-11T15:45:08.751Z,95693.50
2022-12-11T15:47:35.142Z,95691.63
2022-12-11T15:50:21.297Z,95695.03
2022-12-11T15:52:48.540Z,95691.06
2022-12-11T15:55:15.115Z,95699.63
2022-12-11T15:57:46.600Z,95692.72
2022-12-11T16:00:18.705Z,95690.63
2022-12-11T16:02:45.754Z,95701.19
2022-12-11T16:05:12.859Z,95705.25
2022-12-11T16:07:39.557Z,95701.41
2022-12-11T16:10:07.426Z,95701.19
2022-12-11T16:12:33.873Z,95705.13
2022-12-11T16:15:00.326Z,95696.03
2022-12-11T16:17:26.759Z,95699.56
2022-12-11T16:19:54.032Z,95700.38
2022-12-11T16:22:23.525Z,95704.72
2022-12-11T16:24:54.530Z,95713.09
2022-12-11T16:27:23.358Z,95712.97
2022-12-11T16:29:51.058Z,95714.81
2022-12-11T16:32:17.599Z,95712.16
2022-12-11T16:34:44.028Z,95712.53
2022-12-11T16:37:11.363Z,95707.38
2022-12-11T16:39:38.382Z,95708.31
2022-12-11T16:42:05.950Z,95704.06
2022-12-11T16:44:32.754Z,95704.47
2022-12-11T16:46:59.097Z,95708.44
2022-12-11T16:49:25.449Z,95707.59
2022-12-11T16:51:51.788Z,95702.44
2022-12-11T16:54:24.417Z,95701.50
2022-12-11T16:56:55.839Z,95706.88
2022-12-11T16:59:25.221Z,95704.69
2022-12-11T17:01:51.625Z,95699.72
2022-12-11T17:04:22.610Z,95704.47
2022-12-11T17:06:48.997Z,95707.97
2022-12-11T17:09:21.453Z,95697.19
2022-12-11T17:11:47.793Z,95698.50
2022-12-11T17:14:23.405Z,95694.28
2022-12-11T17:16:50.255Z,95695.94
2022-12-11T17:19:16.593Z,95692.19
2022-12-11T17:21:51.933Z,95694.06
2022-12-11T17:24:38.039Z,95691.66
2022-12-11T17:27:13.363Z,95682.84
2022-12-11T17:29:39.732Z,95680.63
2022-12-11T17:32:08.450Z,95679.84
2022-12-11T17:34:38.377Z,95678.41
2022-12-11T17:37:10.755Z,95674.91
2022-12-11T17:39:37.704Z,95685.06
2022-12-11T17:42:08.918Z,95687.28
2022-12-11T17:44:40.208Z,95678.84
2022-12-11T17:47:11.085Z,95678.41
2022-12-11T17:49:42.693Z,95685.06
2022-12-11T17:52:34.426Z,95682.50
2022-12-11T17:54:57.079Z,95687.09
2022-12-11T17:57:26.567Z,95680.84
2022-12-11T18:00:05.154Z,95682.13
2022-12-11T18:02:36.991Z,95686.66
2022-12-11T18:05:11.735Z,95695.69
2022-12-11T18:07:44.981Z,95692.38
2022-12-11T18:10:16.750Z,95686.00
2022-12-11T18:12:48.424Z,95689.50
2022-12-11T18:15:20.361Z,95692.94
2022-12-11T18:17:49.869Z,95688.22
2022-12-11T18:20:18.808Z,95690.16
2022-12-11T18:22:45.211Z,95690.44
2022-12-11T18:25:17.173Z,95688.50
2022-12-11T18:27:49.074Z,95687.59
2022-12-11T18:30:15.451Z,95681.44
2022-12-11T18:32:54.768Z,95682.91
2022-12-11T18:35:21.495Z,95686.25
2022-12-11T18:37:47.848Z,95686.00
2022-12-11T18:40:14.214Z,95691.69
2022-12-11T18:42:40.567Z,95680.00
2022-12-11T18:45:07.582Z,95680.38
2022-12-11T18:47:33.966Z,95683.41
2022-12-11T18:50:07.110Z,95685.50
2022-12-11T18:52:34.425Z,95691.41
2022-12-11T18:55:00.790Z,95689.94
2022-12-11T18:57:27.233Z,95686.81
2022-12-11T18:59:53.932Z,95689.03
2022-12-11T19:02:21.085Z,95693.06
2022-12-11T19:04:47.762Z,95692.31
2022-12-11T19:07:14.208Z,95689.28
2022-12-11T19:09:44.822Z,95690.84
2022-12-11T19:12:14.078Z,95693.31
2022-12-11T19:14:40.417Z,95693.59
2022-12-11T19:17:07.110Z,95694.22
2022-12-11T19:19:34.010Z,95703.13
2022-12-11T19:22:00.395Z,95702.13
2022-12-11T19:24:26.899Z,95698.81
2022-12-11T19:26:53.389Z,95701.19
2022-12-11T19:29:29.763Z,95698.19
2022-12-11T19:31:56.296Z,95703.03
2022-12-11T19:34:23.378Z,95704.47
2022-12-11T19:36:50.047Z,95705.31
2022-12-11T19:39:17.111Z,95709.91
2022-12-11T19:41:44.840Z,95709.25
2022-12-11T19:44:11.872Z,95708.41
2022-12-11T19:46:39.413Z,95711.47
2022-12-11T19:49:05.975Z,95716.53
2022-12-11T19:51:41.226Z,95718.53
2022-12-11T19:54:11.627Z,95719.53
2022-12-11T19:56:38.561Z,95714.91
2022-12-11T19:59:07.070Z,95711.56
2022-12-11T20:01:36.191Z,95714.78
2022-12-11T20:04:08.622Z,95716.44
2022-12-11T20:06:37.634Z,95713.38
2022-12-11T20:09:06.124Z,95716.13
2022-12-11T20:11:33.294Z,95711.56
2022-12-11T20:14:00.033Z,95713.22
2022-12-11T20:16:46.326Z,95717.69
2022-12-11T20:19:13.254Z,95709.66
2022-12-11T20:21:39.624Z,95717.44
2022-12-11T20:24:06.338Z,95728.16
2022-12-11T20:26:35.877Z,95724.16
2022-12-11T20:29:07.285Z,95722.25
2022-12-11T20:31:34.469Z,95726.97
2022-12-11T20:34:00.889Z,95728.94
2022-12-11T20:36:27.365Z,95731.00
2022-12-11T20:38:53.894Z,95727.03
2022-12-11T20:41:23.789Z,95728.94
2022-12-11T20:43:50.644Z,95724.63
2022-12-11T20:46:18.418Z,95729.31
2022-12-11T20:48:45.622Z,95730.03
2022-12-11T20:51:13.960Z,95729.69
2022-12-11T20:53:41.577Z,95733.59
2022-12-11T20:56:14.348Z,95724.50
2022-12-11T20:58:41.037Z,95731.94
2022-12-11T21:01:12.613Z,95724.22
2022-12-11T21:03:41.993Z,95726.84
2022-12-11T21:06:16.888Z,95731.09
2022-12-11T21:08:43.274Z,95735.22
2022-12-11T21:11:09.986Z,95731.22
2022-12-11T21:13:37.227Z,95728.16
2022-12-11T21:16:07.612Z,95733.94
2022-12-11T21:18:34.852Z,95731.47
2022-12-11T21:21:01.217Z,95727.63
2022-12-11T21:23:28.022Z,95730.84
2022-12-11T21:25:54.516Z,95734.41
2022-12-11T21:28:21.113Z,95730.94
2022-12-11T21:30:47.591Z,95735.19
2022-12-11T21:33:14.250Z,95734.19
2022-12-11T21:35:40.663Z,95737.94
2022-12-11T21:38:07.239Z,95739.06
2022-12-11T21:40:34.006Z,95737.00
2022-12-11T21:43:00.396Z,95729.31
2022-12-11T21:45:59.105Z,95731.13
2022-12-11T21:48:13.523Z,95730.72
2022-12-11T21:50:41.075Z,95736.69
2022-12-11T21:53:07.507Z,95727.50
2022-12-11T21:55:34.136Z,95737.84
2022-12-11T21:58:00.622Z,95735.03
2022-12-11T22:00:28.148Z,95736.75
2022-12-11T22:02:54.613Z,95734.28
2022-12-11T22:05:21.178Z,95735.59
2022-12-11T22:07:48.757Z,95741.41
2022-12-11T22:10:15.258Z,95732.97
2022-12-11T22:12:41.783Z,95743.91
2022-12-11T22:15:08.999Z,95738.34
2022-12-11T22:17:37.030Z,95733.19
2022-12-11T22:20:05.381Z,95725.56
2022-12-11T22:22:32.436Z,95724.81
2022-12-11T22:24:58.892Z,95731.09
2022-12-11T22:27:32.537Z,95725.56
2022-12-11T22:29:58.955Z,95728.28
2022-12-11T22:32:25.329Z,95728.06
2022-12-11T22:34:51.767Z,95723.06
2022-12-11T22:37:21.243Z,95722.19
2022-12-11T22:39:47.599Z,95719.19
2022-12-11T22:42:15.924Z,95726.97
2022-12-11T22:44:42.331Z,95723.50
2022-12-11T22:47:08.703Z,95728.63
2022-12-11T22:49:36.270Z,95724.00
2022-12-11T22:52:08.374Z,95720.00
2022-12-11T22:54:34.705Z,95717.84
2022-12-11T22:57:05.765Z,95728.13
2022-12-11T22:59:35.789Z,95725.13
2022-12-11T23:02:05.944Z,95727.50
2022-12-11T23:04:35.581Z,95725.59
2022-12-11T23:07:01.914Z,95730.59
2022-12-11T23:09:28.290Z,95722.09
2022-12-11T23:11:55.600Z,95731.44
2022-12-11T23:14:24.282Z,95726.50
2022-12-11T23:16:53.089Z,95725.13
2022-12-11T23:19:25.240Z,95717.34
2022-12-11T23:21:52.111Z,95727.91
2022-12-11T23:24:21.079Z,95737.22
2022-12-11T23:26:47.994Z,95727.09
2022-12-11T23:29:14.525Z,95731.09
2022-12-11T23:31:40.844Z,95736.41
2022-12-11T23:34:07.177Z,95739.47
2022-12-11T23:36:33.564Z,95738.97
2022-12-11T23:39:05.826Z,95737.78
2022-12-11T23:41:35.316Z,95736.63
2022-12-11T23:44:01.866Z,95740.69
2022-12-11T23:46:28.618Z,95734.88
2022-12-11T23:48:59.670Z,95741.03
2022-12-11T23:51:26.108Z,95732.75
2022-12-11T23:54:03.834Z,95738.97
2022-12-11T23:56:30.290Z,95736.00
2022-12-11T23:58:57.108Z,95736.00
